Time;durP1;ratioP1;P1;durP2;ratioP2;P2;SDS_P1;SDS_P2;PMS_P1;PMS_P2;Temp;Humidity;BMP_temperature;BMP_pressure;BME280_temperature;BME280_humidity;BME280_pressure;Samples;Min_cycle;Max_cycle;Signal;HPM_P1;HPM_P2
2021/07/16 00:01:51;;;;;;;5.33;2.40;;;20.60;99.90;;;;;;4990290;28;20668;-75
2021/07/16 00:04:16;;;;;;;2.60;2.40;;;20.50;99.90;;;;;;4994730;28;20217;-75
2021/07/16 00:06:42;;;;;;;3.93;2.13;;;20.50;99.90;;;;;;4999332;28;20189;-74
2021/07/16 00:09:08;;;;;;;4.13;3.57;;;20.40;99.90;;;;;;4991328;28;20218;-74
2021/07/16 00:11:34;;;;;;;2.57;2.37;;;20.40;99.90;;;;;;4993767;28;20216;-74
2021/07/16 00:14:00;;;;;;;3.30;3.00;;;20.50;99.90;;;;;;4991356;28;20881;-74
2021/07/16 00:16:26;;;;;;;3.63;2.30;;;20.50;99.90;;;;;;4997354;28;21038;-74
2021/07/16 00:18:53;;;;;;;2.60;2.40;;;20.30;99.90;;;;;;4994841;28;20446;-75
2021/07/16 00:21:18;;;;;;;3.77;2.23;;;20.40;99.90;;;;;;4993136;28;20196;-74
2021/07/16 00:23:44;;;;;;;4.73;2.00;;;20.40;99.90;;;;;;4992770;28;20464;-74
2021/07/16 00:26:14;;;;;;;2.97;2.07;;;20.30;99.90;;;;;;4993563;28;20227;-75
2021/07/16 00:28:40;;;;;;;3.30;2.40;;;20.20;99.90;;;;;;4997610;28;20200;-74
2021/07/16 00:31:06;;;;;;;2.70;2.50;;;20.00;99.90;;;;;;4993774;28;20451;-73
2021/07/16 00:33:32;;;;;;;2.90;2.30;;;20.10;99.90;;;;;;4994498;28;20469;-73
2021/07/16 00:35:57;;;;;;;3.13;2.40;;;20.00;99.90;;;;;;4991664;28;20192;-73
2021/07/16 00:38:23;;;;;;;2.57;2.37;;;19.90;99.90;;;;;;4993066;28;20259;-74
2021/07/16 00:40:49;;;;;;;3.80;2.50;;;20.10;99.90;;;;;;4998023;28;20181;-73
2021/07/16 00:43:15;;;;;;;2.47;1.80;;;19.90;99.90;;;;;;4994540;28;20303;-73
2021/07/16 00:45:41;;;;;;;3.13;2.17;;;19.70;99.90;;;;;;4996117;28;21123;-73
2021/07/16 00:48:06;;;;;;;2.63;2.43;;;19.70;99.90;;;;;;4988016;28;20201;-74
2021/07/16 00:50:37;;;;;;;3.20;2.60;;;19.50;99.90;;;;;;4991994;28;20190;-74
2021/07/16 00:53:04;;;;;;;2.50;2.30;;;19.40;99.90;;;;;;4980688;28;20289;-74
2021/07/16 00:55:31;;;;;;;4.43;2.10;;;19.50;99.90;;;;;;4992088;28;20603;-73
2021/07/16 00:57:57;;;;;;;2.67;2.27;;;19.60;99.90;;;;;;4990079;28;20943;-74
2021/07/16 01:00:23;;;;;;;5.20;2.40;;;19.70;99.90;;;;;;4994770;28;20459;-74
2021/07/16 01:02:50;;;;;;;3.80;2.07;;;19.70;99.90;;;;;;4985008;28;21008;-73
2021/07/16 01:05:17;;;;;;;2.60;2.40;;;19.50;99.90;;;;;;4991939;28;20471;-74
2021/07/16 01:07:45;;;;;;;2.50;2.27;;;19.40;99.90;;;;;;4994097;28;20444;-74
2021/07/16 01:10:11;;;;;;;4.90;2.00;;;19.50;99.90;;;;;;4990317;28;20515;-74
2021/07/16 01:12:41;;;;;;;2.80;2.50;;;19.60;99.90;;;;;;4994962;28;22357;-74
2021/07/16 01:15:09;;;;;;;2.57;2.37;;;19.60;99.90;;;;;;4978410;28;20511;-74
2021/07/16 01:17:36;;;;;;;3.73;2.50;;;19.40;99.90;;;;;;4992990;28;20869;-74
2021/07/16 01:20:07;;;;;;;2.20;1.80;;;19.40;99.90;;;;;;4995022;28;20452;-73
2021/07/16 01:22:36;;;;;;;2.43;2.23;;;19.20;99.90;;;;;;4986836;28;20452;-73
2021/07/16 01:25:06;;;;;;;4.80;2.60;;;19.30;99.90;;;;;;4991100;28;20475;-73
2021/07/16 01:27:33;;;;;;;2.40;2.03;;;19.50;99.90;;;;;;4995128;28;20530;-73
2021/07/16 01:30:01;;;;;;;3.37;2.60;;;19.60;99.90;;;;;;4990383;28;21405;-73
2021/07/16 01:32:27;;;;;;;2.77;2.13;;;19.60;99.90;;;;;;4992063;28;20440;-73
2021/07/16 01:34:53;;;;;;;2.73;2.30;;;19.70;99.90;;;;;;4992817;28;20599;-73
2021/07/16 01:37:20;;;;;;;4.90;2.30;;;19.80;99.90;;;;;;4993559;28;20941;-73
2021/07/16 01:39:46;;;;;;;2.53;2.30;;;19.80;99.90;;;;;;4988120;28;20206;-73
2021/07/16 01:42:13;;;;;;;3.73;2.20;;;19.50;99.90;;;;;;4996677;28;20463;-73
2021/07/16 01:44:40;;;;;;;2.73;2.53;;;19.60;99.90;;;;;;4993912;28;20229;-73
2021/07/16 01:47:06;;;;;;;3.67;2.80;;;19.80;99.90;;;;;;4985591;28;21013;-76
2021/07/16 01:49:32;;;;;;;3.20;2.10;;;19.70;99.90;;;;;;4989146;28;20432;-73
2021/07/16 01:51:58;;;;;;;3.57;2.20;;;19.70;99.90;;;;;;4986888;28;20285;-73
2021/07/16 01:54:24;;;;;;;2.53;2.27;;;19.60;99.90;;;;;;4990478;28;20628;-74
2021/07/16 01:56:50;;;;;;;3.00;2.20;;;19.40;99.90;;;;;;4994672;28;20445;-73
2021/07/16 01:59:16;;;;;;;3.20;2.63;;;19.60;99.90;;;;;;4995658;28;20624;-72
2021/07/16 02:01:42;;;;;;;4.27;2.47;;;19.70;99.90;;;;;;4990845;28;20451;-74
2021/07/16 02:04:07;;;;;;;2.57;2.37;;;19.90;99.90;;;;;;4996104;28;20471;-74
2021/07/16 02:06:34;;;;;;;2.87;2.47;;;19.90;99.90;;;;;;4992819;28;20232;-74
2021/07/16 02:09:00;;;;;;;3.10;2.60;;;19.20;99.90;;;;;;4994635;28;20188;-72
2021/07/16 02:11:28;;;;;;;2.90;2.40;;;19.10;99.90;;;;;;4995138;28;20440;-74
2021/07/16 02:13:55;;;;;;;3.10;2.20;;;19.10;99.90;;;;;;4993854;28;20475;-74
2021/07/16 02:16:20;;;;;;;4.70;2.37;;;19.40;99.90;;;;;;4997758;28;20551;-74
2021/07/16 02:18:50;;;;;;;3.17;2.10;;;19.30;99.90;;;;;;4993814;28;21313;-74
2021/07/16 02:21:16;;;;;;;3.20;2.33;;;19.10;99.90;;;;;;4992095;28;20903;-73
2021/07/16 02:23:42;;;;;;;4.50;3.07;;;19.10;99.90;;;;;;4991929;28;20462;-73
2021/07/16 02:26:08;;;;;;;5.00;2.47;;;19.30;99.90;;;;;;4994086;28;20479;-73
2021/07/16 02:28:34;;;;;;;4.63;2.50;;;19.30;99.90;;;;;;4991530;28;20189;-73
2021/07/16 02:31:05;;;;;;;2.47;2.27;;;19.30;99.90;;;;;;4993378;28;20187;-73
2021/07/16 02:33:31;;;;;;;8.33;2.60;;;19.30;99.90;;;;;;4989868;28;20949;-73
2021/07/16 02:35:56;;;;;;;3.17;2.13;;;19.20;99.90;;;;;;4990888;28;20502;-73
2021/07/16 02:38:22;;;;;;;4.30;2.50;;;19.30;99.90;;;;;;4991806;28;20265;-74
2021/07/16 02:40:48;;;;;;;3.40;2.50;;;19.40;99.90;;;;;;4971848;28;20196;-73
2021/07/16 02:43:15;;;;;;;4.00;2.57;;;19.10;99.90;;;;;;4993216;28;20645;-73
2021/07/16 02:45:42;;;;;;;3.20;2.30;;;18.90;99.90;;;;;;4995582;28;20578;-74
2021/07/16 02:48:09;;;;;;;2.90;2.60;;;19.00;99.90;;;;;;4988069;28;20506;-73
2021/07/16 02:50:37;;;;;;;2.80;2.60;;;18.90;99.90;;;;;;4991557;28;23497;-73
2021/07/16 02:53:07;;;;;;;9.30;2.70;;;18.60;99.90;;;;;;4993211;28;21006;-72
2021/07/16 02:55:34;;;;;;;2.63;2.43;;;18.80;99.90;;;;;;4992443;28;21161;-73
2021/07/16 02:58:00;;;;;;;6.13;2.77;;;18.90;99.90;;;;;;4992067;28;21144;-73
2021/07/16 03:00:27;;;;;;;3.20;2.43;;;18.80;99.90;;;;;;4974821;28;20448;-73
2021/07/16 03:02:53;;;;;;;4.20;2.70;;;18.70;99.90;;;;;;4992514;28;20201;-74
2021/07/16 03:05:21;;;;;;;6.93;3.67;;;18.70;99.90;;;;;;4988372;28;20574;-74
2021/07/16 03:07:48;;;;;;;7.40;2.90;;;18.80;99.90;;;;;;4995213;28;20440;-74
2021/07/16 03:10:29;;;;;;;4.00;3.60;;;18.80;99.90;;;;;;4991542;28;20949;-73
2021/07/16 03:12:56;;;;;;;3.63;3.33;;;18.80;99.90;;;;;;4993198;28;20492;-75
2021/07/16 03:15:24;;;;;;;5.10;4.40;;;18.80;99.90;;;;;;4990653;28;20435;-73
2021/07/16 03:17:50;;;;;;;5.43;3.77;;;19.00;99.90;;;;;;4992216;28;20452;-73
2021/07/16 03:20:31;;;;;;;4.53;4.10;;;19.10;99.90;;;;;;4995559;28;20524;-73
2021/07/16 03:22:58;;;;;;;6.23;4.73;;;19.20;99.90;;;;;;4993639;28;20539;-74
2021/07/16 03:25:25;;;;;;;5.30;4.50;;;19.00;99.90;;;;;;4997146;28;20508;-73
2021/07/16 03:27:52;;;;;;;6.13;4.03;;;18.90;99.90;;;;;;4998655;28;20535;-73
2021/07/16 03:30:29;;;;;;;9.77;4.60;;;19.00;99.90;;;;;;4997452;28;20448;-74
2021/07/16 03:32:56;;;;;;;5.00;4.50;;;19.00;99.90;;;;;;4998035;28;20475;-73
2021/07/16 03:35:22;;;;;;;4.83;4.40;;;19.00;99.90;;;;;;5003870;28;20452;-73
2021/07/16 03:37:48;;;;;;;8.70;5.10;;;19.20;99.90;;;;;;5022775;28;20444;-75
2021/07/16 03:40:15;;;;;;;6.20;4.70;;;19.30;99.90;;;;;;5019254;28;20534;-74
2021/07/16 03:42:41;;;;;;;4.70;3.93;;;19.50;99.90;;;;;;5028627;28;20448;-73
2021/07/16 03:45:12;;;;;;;5.67;4.27;;;19.40;99.90;;;;;;5014350;28;20484;-74
2021/07/16 03:47:39;;;;;;;6.73;4.30;;;19.00;99.90;;;;;;4991037;28;20900;-75
2021/07/16 03:50:06;;;;;;;15.40;5.30;;;19.10;99.90;;;;;;4993149;28;20866;-74
2021/07/16 03:52:32;;;;;;;6.73;4.70;;;19.30;99.90;;;;;;4989408;28;20428;-75
2021/07/16 03:54:57;;;;;;;6.83;5.53;;;19.30;99.90;;;;;;4990561;28;20535;-73
2021/07/16 03:57:23;;;;;;;8.33;5.70;;;19.20;99.90;;;;;;4974540;28;20656;-74
2021/07/16 03:59:49;;;;;;;7.20;5.90;;;19.00;99.90;;;;;;4989911;28;20190;-73
2021/07/16 04:02:14;;;;;;;7.97;5.60;;;19.20;99.90;;;;;;4972850;28;20189;-74
2021/07/16 04:04:40;;;;;;;8.10;6.10;;;19.20;99.90;;;;;;4988024;28;20304;-73
2021/07/16 04:07:07;;;;;;;8.20;5.47;;;19.20;99.90;;;;;;4988699;28;20190;-73
2021/07/16 04:09:34;;;;;;;9.40;7.50;;;19.20;99.90;;;;;;4995616;28;20344;-73
2021/07/16 04:12:13;;;;;;;9.63;7.17;;;19.30;99.90;;;;;;4986154;28;21157;-74
2021/07/16 04:14:41;;;;;;;6.50;5.77;;;19.20;99.90;;;;;;4996871;28;20451;-74
2021/07/16 04:17:09;;;;;;;8.07;5.80;;;19.20;99.90;;;;;;4998311;28;20451;-74
2021/07/16 04:19:36;;;;;;;7.90;6.20;;;19.10;99.90;;;;;;4997752;28;20469;-74
2021/07/16 04:22:01;;;;;;;7.50;6.13;;;19.20;99.90;;;;;;4996866;28;20456;-74
2021/07/16 04:24:27;;;;;;;7.73;6.97;;;19.40;99.90;;;;;;4997565;28;20466;-74
2021/07/16 04:26:53;;;;;;;7.00;6.30;;;19.50;99.90;;;;;;4997529;28;20217;-75
2021/07/16 04:29:18;;;;;;;8.47;7.00;;;19.30;99.90;;;;;;4995474;28;20668;-74
2021/07/16 04:31:44;;;;;;;9.27;7.33;;;19.30;99.90;;;;;;4999388;28;20194;-73
2021/07/16 04:34:10;;;;;;;8.23;7.43;;;19.20;99.90;;;;;;4998054;28;20213;-74
2021/07/16 04:36:35;;;;;;;12.63;8.40;;;19.20;99.90;;;;;;4996559;28;20197;-74
2021/07/16 04:39:03;;;;;;;13.00;7.47;;;19.10;99.90;;;;;;4994043;28;20224;-74
2021/07/16 04:41:28;;;;;;;10.20;7.80;;;19.20;99.90;;;;;;5000076;28;20186;-74
2021/07/16 04:43:56;;;;;;;10.13;7.57;;;19.30;99.90;;;;;;4997690;28;20515;-74
2021/07/16 04:46:22;;;;;;;9.80;8.23;;;19.10;99.90;;;;;;4999587;28;20296;-74
2021/07/16 04:48:48;;;;;;;9.73;8.63;;;19.10;99.90;;;;;;4998606;28;20970;-74
2021/07/16 04:51:28;;;;;;;9.13;7.77;;;19.20;99.90;;;;;;4995811;28;20447;-73
2021/07/16 04:53:57;;;;;;;9.07;7.60;;;19.30;99.90;;;;;;4995703;28;20216;-74
2021/07/16 04:56:24;;;;;;;8.17;6.97;;;19.30;99.90;;;;;;4982271;28;20464;-73
2021/07/16 04:58:50;;;;;;;9.33;6.70;;;19.30;99.90;;;;;;4999393;28;20420;-74
2021/07/16 05:01:16;;;;;;;21.60;7.87;;;19.10;99.90;;;;;;4998578;28;20440;-73
2021/07/16 05:03:43;;;;;;;10.77;8.00;;;19.00;99.90;;;;;;4998954;28;20209;-74
2021/07/16 05:06:11;;;;;;;11.43;7.30;;;19.30;99.90;;;;;;4997074;28;20468;-74
2021/07/16 05:08:40;;;;;;;11.37;9.10;;;19.50;99.90;;;;;;4997679;28;20452;-75
2021/07/16 05:11:07;;;;;;;9.13;7.43;;;19.50;99.90;;;;;;4982206;28;20436;-74
2021/07/16 05:13:35;;;;;;;9.47;7.53;;;19.50;99.90;;;;;;4999452;28;20481;-75
2021/07/16 05:16:02;;;;;;;12.17;8.93;;;19.60;99.90;;;;;;4997344;28;20475;-74
2021/07/16 05:18:28;;;;;;;12.57;8.93;;;19.50;99.90;;;;;;4995461;28;20519;-75
2021/07/16 05:20:53;;;;;;;14.93;9.30;;;19.60;99.90;;;;;;4981061;28;20588;-76
2021/07/16 05:23:19;;;;;;;11.10;10.00;;;19.40;99.90;;;;;;4995737;28;20216;-75
2021/07/16 05:25:45;;;;;;;12.03;9.13;;;19.30;99.90;;;;;;4995964;28;20235;-74
2021/07/16 05:28:10;;;;;;;12.67;9.40;;;19.50;99.90;;;;;;4996447;28;20657;-74
2021/07/16 05:30:36;;;;;;;16.90;9.30;;;19.50;99.90;;;;;;4998016;28;20687;-75
2021/07/16 05:33:02;;;;;;;10.23;8.47;;;19.50;99.90;;;;;;4998142;28;20286;-74
2021/07/16 05:35:27;;;;;;;10.77;9.67;;;19.50;99.90;;;;;;4996232;28;20181;-74
2021/07/16 05:37:53;;;;;;;12.30;7.73;;;19.60;99.90;;;;;;4994276;28;20276;-75
2021/07/16 05:40:19;;;;;;;11.70;9.73;;;19.60;99.90;;;;;;4993396;28;20961;-72
2021/07/16 05:42:45;;;;;;;11.27;9.67;;;19.40;99.90;;;;;;4993755;28;20188;-73
2021/07/16 05:45:11;;;;;;;13.90;9.77;;;19.40;99.90;;;;;;4988120;28;20467;-74
2021/07/16 05:47:37;;;;;;;12.80;9.00;;;19.40;99.90;;;;;;4978186;28;20452;-74
2021/07/16 05:50:03;;;;;;;12.70;9.67;;;19.50;99.90;;;;;;4995453;28;20182;-73
2021/07/16 05:52:32;;;;;;;9.37;8.37;;;19.40;99.90;;;;;;4996094;28;20189;-73
2021/07/16 05:54:58;;;;;;;9.30;8.30;;;19.40;99.90;;;;;;4972389;28;20848;-74
2021/07/16 05:57:23;;;;;;;10.40;9.40;;;19.60;99.90;;;;;;4994670;28;20436;-75
2021/07/16 05:59:49;;;;;;;11.13;8.90;;;19.60;99.90;;;;;;4987552;28;20455;-74
2021/07/16 06:02:15;;;;;;;12.67;9.13;;;19.60;99.90;;;;;;4969529;28;20411;-74
2021/07/16 06:04:40;;;;;;;10.83;9.60;;;19.70;99.90;;;;;;4988931;28;20221;-74
2021/07/16 06:07:06;;;;;;;11.03;8.93;;;19.70;99.90;;;;;;4995053;28;20645;-74
2021/07/16 06:09:32;;;;;;;11.50;10.30;;;19.80;99.90;;;;;;4989242;28;20277;-73
2021/07/16 06:11:58;;;;;;;12.70;9.87;;;20.00;99.90;;;;;;4995469;28;20572;-75
2021/07/16 06:14:23;;;;;;;12.03;9.40;;;20.00;99.90;;;;;;4994994;28;20208;-74
2021/07/16 06:16:50;;;;;;;15.40;9.33;;;20.00;99.90;;;;;;4995431;28;20201;-75
2021/07/16 06:19:19;;;;;;;9.97;8.97;;;20.30;99.90;;;;;;4993415;28;20276;-75
2021/07/16 06:21:45;;;;;;;12.90;10.03;;;20.60;99.90;;;;;;4995835;28;20436;-75
2021/07/16 06:24:11;;;;;;;13.40;11.43;;;20.60;99.90;;;;;;4997516;28;20444;-73
2021/07/16 06:26:37;;;;;;;10.50;9.07;;;20.50;99.90;;;;;;4990986;28;20495;-74
2021/07/16 06:29:04;;;;;;;12.03;8.07;;;20.30;99.90;;;;;;4996762;28;20429;-75
2021/07/16 06:31:30;;;;;;;9.67;8.67;;;20.20;99.90;;;;;;4989205;28;22272;-74
2021/07/16 06:33:55;;;;;;;14.10;9.70;;;20.30;99.90;;;;;;4989076;28;20464;-75
2021/07/16 06:36:21;;;;;;;12.20;9.13;;;20.60;99.90;;;;;;4993158;28;20189;-74
2021/07/16 06:38:47;;;;;;;14.77;9.17;;;20.80;99.90;;;;;;4992358;28;20217;-74
2021/07/16 06:41:13;;;;;;;9.40;8.40;;;20.90;99.90;;;;;;4994353;28;20455;-75
2021/07/16 06:43:39;;;;;;;13.43;9.10;;;21.20;99.90;;;;;;4997798;28;20463;-75
2021/07/16 06:46:05;;;;;;;10.80;9.37;;;21.10;99.90;;;;;;4994107;28;20254;-75
2021/07/16 06:48:31;;;;;;;13.40;9.13;;;21.00;99.90;;;;;;4994683;28;20181;-75
2021/07/16 06:50:56;;;;;;;12.03;10.37;;;20.80;99.90;;;;;;4997887;28;20435;-75
2021/07/16 06:53:22;;;;;;;9.70;8.73;;;20.70;99.90;;;;;;4980356;28;20255;-76
2021/07/16 06:55:48;;;;;;;10.73;8.40;;;21.00;99.90;;;;;;4978622;28;20205;-75
2021/07/16 06:58:14;;;;;;;9.30;8.33;;;20.90;99.90;;;;;;5000181;28;20195;-74
2021/07/16 07:00:39;;;;;;;8.00;7.03;;;20.90;99.90;;;;;;4996990;28;20447;-75
2021/07/16 07:03:05;;;;;;;9.97;9.00;;;20.90;99.90;;;;;;5000680;28;20184;-76
2021/07/16 07:05:31;;;;;;;9.60;8.20;;;21.00;99.90;;;;;;5002442;28;20216;-76
2021/07/16 07:07:56;;;;;;;12.10;10.53;;;21.10;99.90;;;;;;4999805;28;20205;-75
2021/07/16 07:10:22;;;;;;;13.60;10.47;;;21.20;99.90;;;;;;4998755;28;20277;-75
2021/07/16 07:12:48;;;;;;;9.77;8.70;;;21.10;99.90;;;;;;5002864;28;20192;-74
2021/07/16 07:15:14;;;;;;;10.00;8.97;;;21.00;99.90;;;;;;4998008;28;20221;-74
2021/07/16 07:17:41;;;;;;;11.37;9.40;;;21.20;99.90;;;;;;4996059;28;20251;-74
2021/07/16 07:20:08;;;;;;;11.20;9.63;;;21.00;99.90;;;;;;4998745;28;20443;-75
2021/07/16 07:22:34;;;;;;;11.47;9.07;;;21.00;99.90;;;;;;4996818;28;20649;-74
2021/07/16 07:25:00;;;;;;;10.50;8.27;;;21.30;99.90;;;;;;4999855;28;20475;-76
2021/07/16 07:27:26;;;;;;;9.80;8.40;;;21.30;99.90;;;;;;4994766;28;20186;-75
2021/07/16 07:29:52;;;;;;;12.53;9.17;;;21.30;99.90;;;;;;4976556;28;20194;-73
2021/07/16 07:32:19;;;;;;;9.33;8.43;;;21.30;99.90;;;;;;4982864;28;20443;-74
2021/07/16 07:34:45;;;;;;;9.57;8.10;;;21.20;99.90;;;;;;4999263;28;20209;-73
2021/07/16 07:37:11;;;;;;;9.20;8.30;;;21.30;99.90;;;;;;4999001;28;20440;-73
2021/07/16 07:39:36;;;;;;;8.70;6.80;;;21.40;99.90;;;;;;5000279;28;20197;-76
2021/07/16 07:42:02;;;;;;;9.20;8.33;;;21.40;99.90;;;;;;4984474;28;20876;-74
2021/07/16 07:44:28;;;;;;;7.57;6.80;;;21.60;99.90;;;;;;5001049;28;20206;-75
2021/07/16 07:46:54;;;;;;;8.27;7.23;;;21.60;99.90;;;;;;4998347;28;20452;-75
2021/07/16 07:49:20;;;;;;;7.20;6.20;;;21.90;99.90;;;;;;5000365;28;20186;-74
2021/07/16 07:51:46;;;;;;;7.67;6.23;;;22.00;99.90;;;;;;4998692;28;20204;-73
2021/07/16 07:54:11;;;;;;;5.87;5.27;;;22.20;99.90;;;;;;4999699;28;20468;-75
2021/07/16 07:56:38;;;;;;;7.03;6.00;;;22.20;99.90;;;;;;4999625;28;20696;-73
2021/07/16 07:59:05;;;;;;;6.10;5.50;;;22.30;99.90;;;;;;4984582;28;20201;-75
2021/07/16 08:01:35;;;;;;;7.20;6.30;;;22.30;99.90;;;;;;5002080;28;20452;-75
2021/07/16 08:04:02;;;;;;;7.30;6.03;;;22.30;99.90;;;;;;5000399;28;20487;-74
2021/07/16 08:06:28;;;;;;;6.00;5.50;;;22.20;99.90;;;;;;4977058;28;20476;-75
2021/07/16 08:08:54;;;;;;;6.47;5.80;;;22.10;99.90;;;;;;4993785;28;20444;-74
2021/07/16 08:11:23;;;;;;;5.60;4.97;;;22.10;99.90;;;;;;4997088;28;20456;-75
2021/07/16 08:13:48;;;;;;;6.30;5.70;;;22.10;99.90;;;;;;4994404;28;20240;-73
2021/07/16 08:16:14;;;;;;;5.27;4.80;;;22.20;99.90;;;;;;5001041;28;20464;-73
2021/07/16 08:18:39;;;;;;;8.20;5.30;;;22.30;99.90;;;;;;4995688;28;20193;-76
2021/07/16 08:21:05;;;;;;;6.37;5.53;;;22.20;99.90;;;;;;4996272;28;20708;-75
2021/07/16 08:23:31;;;;;;;5.97;5.47;;;22.20;99.90;;;;;;4999439;28;20213;-73
2021/07/16 08:25:57;;;;;;;5.73;5.10;;;22.40;99.90;;;;;;4980917;28;20276;-74
2021/07/16 08:28:22;;;;;;;4.70;4.30;;;22.50;99.90;;;;;;4993453;28;20200;-74
2021/07/16 08:30:48;;;;;;;5.70;5.20;;;22.60;99.90;;;;;;4999008;28;20189;-74
2021/07/16 08:33:14;;;;;;;5.67;5.10;;;22.60;99.90;;;;;;4985831;28;20721;-75
2021/07/16 08:35:40;;;;;;;5.33;4.93;;;22.70;99.90;;;;;;4997070;28;20194;-75
2021/07/16 08:38:05;;;;;;;6.30;5.70;;;22.40;99.90;;;;;;4995534;28;20731;-74
2021/07/16 08:40:32;;;;;;;5.87;5.37;;;22.20;99.90;;;;;;4991922;28;20302;-74
2021/07/16 08:42:59;;;;;;;6.27;5.77;;;22.20;99.90;;;;;;4978604;28;20795;-73
2021/07/16 08:45:26;;;;;;;5.33;4.83;;;22.30;99.90;;;;;;4994269;28;20467;-77
2021/07/16 08:47:52;;;;;;;6.73;6.10;;;22.30;99.90;;;;;;4996835;28;20978;-75
2021/07/16 08:50:19;;;;;;;14.73;5.73;;;22.30;99.90;;;;;;4997078;28;20746;-73
2021/07/16 08:52:47;;;;;;;5.53;5.00;;;22.30;99.90;;;;;;4997240;28;20445;-74
2021/07/16 08:55:14;;;;;;;5.50;5.03;;;22.40;99.90;;;;;;5000114;28;20471;-74
2021/07/16 08:57:40;;;;;;;6.20;5.60;;;22.40;99.90;;;;;;5006337;28;20463;-75
2021/07/16 09:00:15;;;;;;;6.53;5.97;;;22.40;99.90;;;;;;5022555;28;20438;-75
2021/07/16 09:02:54;;;;;;;5.50;5.10;;;22.60;99.90;;;;;;5023439;28;20448;-75
2021/07/16 09:05:31;;;;;;;5.27;4.87;;;22.70;99.90;;;;;;5026583;28;20455;-75
2021/07/16 09:07:57;;;;;;;8.13;5.50;;;22.80;99.90;;;;;;5021513;28;20440;-75
2021/07/16 09:10:22;;;;;;;7.27;6.50;;;22.80;99.90;;;;;;5001564;28;21130;-75
2021/07/16 09:13:08;;;;;;;4.97;4.57;;;23.00;99.90;;;;;;4998495;28;20189;-74
2021/07/16 09:15:34;;;;;;;5.90;4.83;;;23.00;99.90;;;;;;4994932;28;20286;-76
2021/07/16 09:18:25;;;;;;;5.40;5.00;;;23.10;99.90;;;;;;4998867;28;20478;-75
2021/07/16 09:21:03;;;;;;;5.97;5.40;;;23.10;99.90;;;;;;4996353;28;20280;-74
2021/07/16 09:23:47;;;;;;;4.80;4.40;;;23.20;99.90;;;;;;4994760;28;20468;-73
2021/07/16 09:26:25;;;;;;;4.50;4.20;;;23.20;99.90;;;;;;4997798;28;20995;-74
2021/07/16 09:28:51;;;;;;;6.43;5.77;;;23.30;99.90;;;;;;4995293;28;20447;-74
2021/07/16 09:31:22;;;;;;;20.13;18.03;;;23.40;99.90;;;;;;4995102;28;20428;-75
2021/07/16 09:33:58;;;;;;;5.33;4.20;;;23.50;99.90;;;;;;4994926;28;21045;-75
2021/07/16 09:36:34;;;;;;;9.80;8.80;;;23.60;99.90;;;;;;4995964;28;20474;-76
2021/07/16 09:39:09;;;;;;;11.00;9.90;;;23.70;99.90;;;;;;4993864;28;20440;-75
2021/07/16 09:41:52;;;;;;;7.23;6.63;;;23.80;99.90;;;;;;4994564;28;20835;-74
2021/07/16 09:44:28;;;;;;;5.43;5.00;;;23.90;99.90;;;;;;4995487;28;20440;-75
2021/07/16 09:47:11;;;;;;;8.20;7.40;;;23.90;99.90;;;;;;4995712;28;20546;-73
2021/07/16 09:49:37;;;;;;;5.47;4.80;;;23.90;99.90;;;;;;4996517;28;20444;-75
2021/07/16 09:52:07;;;;;;;4.40;4.00;;;24.00;99.90;;;;;;4992822;28;21112;-75
2021/07/16 09:54:33;;;;;;;4.93;4.23;;;24.00;99.90;;;;;;4996017;28;20484;-75
2021/07/16 09:56:58;;;;;;;8.43;4.83;;;24.10;99.90;;;;;;4994598;28;20473;-74
2021/07/16 09:59:28;;;;;;;10.37;9.27;;;24.10;99.90;;;;;;4998275;28;20193;-74
2021/07/16 10:01:54;;;;;;;5.80;5.30;;;24.20;99.90;;;;;;4999344;28;20700;-75
2021/07/16 10:04:20;;;;;;;4.90;4.60;;;24.30;99.90;;;;;;4995201;28;20539;-76
2021/07/16 10:06:50;;;;;;;5.10;4.70;;;24.40;99.90;;;;;;4996337;28;20472;-74
2021/07/16 10:09:18;;;;;;;13.33;5.27;;;24.40;99.90;;;;;;4992602;28;20436;-75
2021/07/16 10:11:55;;;;;;;4.70;4.30;;;24.40;99.90;;;;;;4992849;28;20918;-75
2021/07/16 10:14:24;;;;;;;4.90;4.50;;;24.50;99.90;;;;;;4994430;28;20543;-75
2021/07/16 10:16:52;;;;;;;4.43;4.07;;;24.50;99.90;;;;;;4975724;28;20424;-76
2021/07/16 10:19:18;;;;;;;4.60;4.20;;;24.30;99.90;;;;;;4977641;28;20436;-75
2021/07/16 10:21:45;;;;;;;4.87;4.47;;;24.30;99.90;;;;;;4994728;28;20440;-76
2021/07/16 10:24:17;;;;;;;4.13;3.83;;;24.30;99.90;;;;;;5000585;28;21182;-76
2021/07/16 10:26:44;;;;;;;5.00;4.60;;;24.40;99.90;;;;;;4996196;28;20486;-74
2021/07/16 10:29:38;;;;;;;4.17;3.87;;;24.50;99.90;;;;;;4994906;28;20496;-75
2021/07/16 10:32:06;;;;;;;5.10;4.60;;;24.60;99.90;;;;;;4995768;28;20513;-75
2021/07/16 10:34:34;;;;;;;4.43;4.03;;;24.80;99.90;;;;;;4997551;28;20453;-74
2021/07/16 10:37:21;;;;;;;5.00;4.60;;;24.80;99.90;;;;;;4998197;28;20958;-75
2021/07/16 10:39:50;;;;;;;4.43;4.13;;;24.90;99.90;;;;;;4997263;28;20831;-74
2021/07/16 10:42:25;;;;;;;4.43;4.03;;;25.00;99.90;;;;;;5002320;28;20465;-75
2021/07/16 10:44:52;;;;;;;3.97;3.60;;;25.00;99.90;;;;;;4997302;28;20470;-76
2021/07/16 10:47:37;;;;;;;3.77;3.47;;;25.00;99.90;;;;;;4994743;28;20425;-76
2021/07/16 10:50:14;;;;;;;4.70;4.00;;;25.00;99.90;;;;;;4995289;28;20504;-75
2021/07/16 10:52:41;;;;;;;3.60;3.30;;;25.00;99.90;;;;;;4977368;28;20515;-76
2021/07/16 10:55:08;;;;;;;3.97;3.67;;;25.00;99.90;;;;;;4998023;28;20459;-76
2021/07/16 10:57:48;;;;;;;4.00;3.70;;;25.20;99.90;;;;;;4989018;28;20785;-75
2021/07/16 11:00:40;;;;;;;3.77;3.47;;;25.40;99.90;;;;;;4995019;28;20490;-74
2021/07/16 11:03:10;;;;;;;3.43;3.20;;;25.40;99.90;;;;;;4972529;28;20448;-74
2021/07/16 11:05:41;;;;;;;3.47;3.17;;;25.70;99.90;;;;;;4995935;28;21197;-74
2021/07/16 11:08:24;;;;;;;3.67;3.33;;;25.90;99.90;;;;;;4993774;28;20440;-76
2021/07/16 11:10:54;;;;;;;3.40;3.10;;;26.10;99.90;;;;;;4995831;28;20490;-75
2021/07/16 11:13:35;;;;;;;3.30;3.00;;;26.40;99.90;;;;;;4978517;28;20485;-76
2021/07/16 11:16:18;;;;;;;3.60;3.30;;;26.60;99.90;;;;;;4993234;28;21123;-75
2021/07/16 11:19:15;;;;;;;3.77;3.47;;;26.80;99.90;;;;;;4992948;28;20548;-74
2021/07/16 11:21:47;;;;;;;4.40;3.27;;;26.90;99.90;;;;;;4990340;28;20486;-74
2021/07/16 11:24:16;;;;;;;3.57;3.27;;;27.10;99.90;;;;;;4993432;28;20456;-74
2021/07/16 11:27:04;;;;;;;3.50;3.20;;;27.00;99.90;;;;;;4990271;28;20538;-75
2021/07/16 11:29:46;;;;;;;3.50;3.20;;;26.90;99.90;;;;;;4991288;28;20440;-75
2021/07/16 11:32:11;;;;;;;3.53;3.33;;;26.80;99.90;;;;;;4990921;28;20428;-74
2021/07/16 11:34:59;;;;;;;3.77;3.47;;;26.60;99.90;;;;;;4997040;28;20535;-74
2021/07/16 11:37:30;;;;;;;3.47;3.17;;;26.50;99.90;;;;;;4989313;28;20213;-76
2021/07/16 11:40:04;;;;;;;5.93;2.90;;;26.50;99.90;;;;;;4992540;28;20520;-75
2021/07/16 11:42:31;;;;;;;3.83;2.80;;;26.50;99.90;;;;;;4992340;28;20828;-75
2021/07/16 11:44:57;;;;;;;3.70;3.40;;;26.70;99.90;;;;;;4993551;28;20546;-76
2021/07/16 11:47:25;;;;;;;4.17;3.20;;;26.80;99.90;;;;;;4995174;28;20432;-74
2021/07/16 11:49:58;;;;;;;3.90;3.50;;;26.70;99.90;;;;;;4991991;28;20211;-74
2021/07/16 11:52:27;;;;;;;3.63;3.33;;;26.90;99.90;;;;;;4989989;28;20530;-74
2021/07/16 11:54:54;;;;;;;4.13;3.83;;;27.00;99.90;;;;;;4990282;28;20494;-74
2021/07/16 11:57:21;;;;;;;3.87;3.57;;;27.20;99.90;;;;;;4991523;28;22330;-74
2021/07/16 11:59:53;;;;;;;3.77;3.33;;;27.40;99.90;;;;;;4991750;28;20935;-73
2021/07/16 12:02:20;;;;;;;3.77;3.43;;;27.50;99.90;;;;;;4995433;28;20479;-74
2021/07/16 12:04:48;;;;;;;4.70;4.30;;;28.00;99.90;;;;;;4992043;28;21122;-75
2021/07/16 12:07:24;;;;;;;4.30;3.90;;;28.50;99.90;;;;;;4993939;28;20517;-75
2021/07/16 12:09:49;;;;;;;3.33;3.10;;;29.10;99.90;;;;;;4992964;28;21004;-75
2021/07/16 12:12:17;;;;;;;3.30;3.03;;;29.60;99.90;;;;;;4997811;28;20524;-75
2021/07/16 12:15:05;;;;;;;3.17;2.90;;;30.10;99.90;;;;;;5003883;28;20662;-74
2021/07/16 12:17:49;;;;;;;3.67;3.37;;;31.00;99.90;;;;;;4977258;28;20470;-74
2021/07/16 12:20:16;;;;;;;3.70;2.40;;;31.20;99.90;;;;;;4983987;28;20436;-75
2021/07/16 12:22:43;;;;;;;2.80;2.60;;;32.10;99.90;;;;;;5000725;28;20416;-75
2021/07/16 12:25:11;;;;;;;2.47;2.33;;;33.10;99.90;;;;;;4981875;28;20477;-73
2021/07/16 12:27:38;;;;;;;2.80;2.60;;;33.10;99.90;;;;;;4981134;28;20482;-74
2021/07/16 12:30:07;;;;;;;2.50;2.30;;;32.70;99.90;;;;;;4998807;28;20508;-74
2021/07/16 12:32:40;;;;;;;2.70;2.50;;;32.30;99.90;;;;;;4993453;28;20609;-74
2021/07/16 12:35:27;;;;;;;2.77;2.57;;;31.80;99.10;;;;;;4997359;28;20448;-74
2021/07/16 12:38:03;;;;;;;3.33;3.10;;;30.80;99.70;;;;;;4987359;28;20713;-75
2021/07/16 12:40:30;;;;;;;4.13;2.77;;;31.30;99.90;;;;;;4991115;28;20450;-73
2021/07/16 12:43:19;;;;;;;4.00;2.80;;;31.50;99.90;;;;;;4997778;28;21142;-74
2021/07/16 12:45:45;;;;;;;7.43;3.37;;;31.40;99.20;;;;;;4977382;28;20554;-74
2021/07/16 12:48:19;;;;;;;3.20;3.00;;;31.60;99.90;;;;;;4993213;28;20673;-73
2021/07/16 12:50:46;;;;;;;3.27;2.50;;;31.50;99.40;;;;;;4996826;28;20182;-74
2021/07/16 12:53:11;;;;;;;3.20;3.00;;;31.30;99.70;;;;;;4989088;28;20504;-73